sensor_id;sensor_type;location;lat;lon;timestamp;P1;durP1;ratioP1;P2;durP2;ratioP2
10333;SDS011;5212;47.892;16.406;2024-02-23T00:00:52;0.80;;;0.60;;
10333;SDS011;5212;47.892;16.406;2024-02-23T00:03:18;0.90;;;0.60;;
10333;SDS011;5212;47.892;16.406;2024-02-23T00:05:44;0.87;;;0.80;;
10333;SDS011;5212;47.892;16.406;2024-02-23T00:08:10;0.77;;;0.60;;
10333;SDS011;5212;47.892;16.406;2024-02-23T00:10:36;0.80;;;0.60;;
10333;SDS011;5212;47.892;16.406;2024-02-23T00:13:02;0.50;;;0.50;;
10333;SDS011;5212;47.892;16.406;2024-02-23T00:15:28;1.00;;;0.53;;
10333;SDS011;5212;47.892;16.406;2024-02-23T00:17:55;0.80;;;0.70;;
10333;SDS011;5212;47.892;16.406;2024-02-23T00:20:21;0.67;;;0.60;;
10333;SDS011;5212;47.892;16.406;2024-02-23T00:22:48;0.90;;;0.80;;
10333;SDS011;5212;47.892;16.406;2024-02-23T00:25:14;0.90;;;0.70;;
10333;SDS011;5212;47.892;16.406;2024-02-23T00:27:40;0.60;;;0.50;;
10333;SDS011;5212;47.892;16.406;2024-02-23T00:30:07;1.10;;;0.60;;
10333;SDS011;5212;47.892;16.406;2024-02-23T00:32:33;0.67;;;0.60;;
10333;SDS011;5212;47.892;16.406;2024-02-23T00:34:59;0.70;;;0.70;;
10333;SDS011;5212;47.892;16.406;2024-02-23T00:37:25;0.73;;;0.73;;
10333;SDS011;5212;47.892;16.406;2024-02-23T00:39:52;0.90;;;0.70;;
10333;SDS011;5212;47.892;16.406;2024-02-23T00:42:18;0.70;;;0.60;;
10333;SDS011;5212;47.892;16.406;2024-02-23T00:44:46;0.67;;;0.60;;
10333;SDS011;5212;47.892;16.406;2024-02-23T00:47:12;0.73;;;0.60;;
10333;SDS011;5212;47.892;16.406;2024-02-23T00:49:38;0.60;;;0.50;;
10333;SDS011;5212;47.892;16.406;2024-02-23T00:52:04;0.73;;;0.50;;
10333;SDS011;5212;47.892;16.406;2024-02-23T00:54:30;0.50;;;0.50;;
10333;SDS011;5212;47.892;16.406;2024-02-23T00:56:57;1.13;;;0.50;;
10333;SDS011;5212;47.892;16.406;2024-02-23T00:59:23;0.40;;;0.40;;
10333;SDS011;5212;47.892;16.406;2024-02-23T01:01:49;0.50;;;0.40;;
10333;SDS011;5212;47.892;16.406;2024-02-23T01:04:15;0.60;;;0.40;;
10333;SDS011;5212;47.892;16.406;2024-02-23T01:06:41;0.60;;;0.50;;
10333;SDS011;5212;47.892;16.406;2024-02-23T01:09:06;0.60;;;0.50;;
10333;SDS011;5212;47.892;16.406;2024-02-23T01:11:32;0.87;;;0.60;;
10333;SDS011;5212;47.892;16.406;2024-02-23T01:13:59;0.43;;;0.40;;
10333;SDS011;5212;47.892;16.406;2024-02-23T01:16:25;0.60;;;0.60;;
10333;SDS011;5212;47.892;16.406;2024-02-23T01:18:51;0.83;;;0.50;;
10333;SDS011;5212;47.892;16.406;2024-02-23T01:21:17;0.70;;;0.50;;
10333;SDS011;5212;47.892;16.406;2024-02-23T01:23:43;0.50;;;0.40;;
10333;SDS011;5212;47.892;16.406;2024-02-23T01:26:09;0.60;;;0.50;;
10333;SDS011;5212;47.892;16.406;2024-02-23T01:28:35;0.77;;;0.50;;
10333;SDS011;5212;47.892;16.406;2024-02-23T01:31:02;0.50;;;0.47;;
10333;SDS011;5212;47.892;16.406;2024-02-23T01:33:29;1.23;;;0.47;;
10333;SDS011;5212;47.892;16.406;2024-02-23T01:35:55;0.50;;;0.50;;
10333;SDS011;5212;47.892;16.406;2024-02-23T01:38:23;0.40;;;0.40;;
10333;SDS011;5212;47.892;16.406;2024-02-23T01:40:50;0.70;;;0.40;;
10333;SDS011;5212;47.892;16.406;2024-02-23T01:43:16;0.73;;;0.57;;
10333;SDS011;5212;47.892;16.406;2024-02-23T01:45:42;1.20;;;0.50;;
10333;SDS011;5212;47.892;16.406;2024-02-23T01:48:08;0.70;;;0.40;;
10333;SDS011;5212;47.892;16.406;2024-02-23T01:50:34;0.60;;;0.50;;
10333;SDS011;5212;47.892;16.406;2024-02-23T01:53:01;0.50;;;0.40;;
10333;SDS011;5212;47.892;16.406;2024-02-23T01:55:28;0.40;;;0.40;;
10333;SDS011;5212;47.892;16.406;2024-02-23T01:57:54;0.60;;;0.50;;
10333;SDS011;5212;47.892;16.406;2024-02-23T02:00:20;0.70;;;0.50;;
10333;SDS011;5212;47.892;16.406;2024-02-23T02:02:47;0.87;;;0.50;;
10333;SDS011;5212;47.892;16.406;2024-02-23T02:05:14;0.50;;;0.40;;
10333;SDS011;5212;47.892;16.406;2024-02-23T02:07:41;0.70;;;0.53;;
10333;SDS011;5212;47.892;16.406;2024-02-23T02:10:08;0.40;;;0.40;;
10333;SDS011;5212;47.892;16.406;2024-02-23T02:12:34;0.40;;;0.40;;
10333;SDS011;5212;47.892;16.406;2024-02-23T02:15:00;2.17;;;0.50;;
10333;SDS011;5212;47.892;16.406;2024-02-23T02:17:27;0.60;;;0.50;;
10333;SDS011;5212;47.892;16.406;2024-02-23T02:19:53;0.47;;;0.40;;
10333;SDS011;5212;47.892;16.406;2024-02-23T02:22:19;0.50;;;0.50;;
10333;SDS011;5212;47.892;16.406;2024-02-23T02:24:45;0.60;;;0.57;;
10333;SDS011;5212;47.892;16.406;2024-02-23T02:27:13;0.57;;;0.50;;
10333;SDS011;5212;47.892;16.406;2024-02-23T02:29:39;0.60;;;0.50;;
10333;SDS011;5212;47.892;16.406;2024-02-23T02:32:05;0.53;;;0.40;;
10333;SDS011;5212;47.892;16.406;2024-02-23T02:34:32;0.80;;;0.50;;
10333;SDS011;5212;47.892;16.406;2024-02-23T02:36:58;1.13;;;0.43;;
10333;SDS011;5212;47.892;16.406;2024-02-23T02:39:27;0.60;;;0.60;;
10333;SDS011;5212;47.892;16.406;2024-02-23T02:41:53;1.00;;;0.60;;
10333;SDS011;5212;47.892;16.406;2024-02-23T02:44:19;0.70;;;0.50;;
10333;SDS011;5212;47.892;16.406;2024-02-23T02:46:45;0.60;;;0.50;;
10333;SDS011;5212;47.892;16.406;2024-02-23T02:49:11;0.40;;;0.40;;
10333;SDS011;5212;47.892;16.406;2024-02-23T02:51:37;0.50;;;0.40;;
10333;SDS011;5212;47.892;16.406;2024-02-23T02:54:04;0.30;;;0.30;;
10333;SDS011;5212;47.892;16.406;2024-02-23T02:56:30;0.40;;;0.40;;
10333;SDS011;5212;47.892;16.406;2024-02-23T02:58:56;0.57;;;0.40;;
10333;SDS011;5212;47.892;16.406;2024-02-23T03:01:22;0.70;;;0.40;;
10333;SDS011;5212;47.892;16.406;2024-02-23T03:03:48;0.90;;;0.50;;
10333;SDS011;5212;47.892;16.406;2024-02-23T03:06:14;0.50;;;0.47;;
10333;SDS011;5212;47.892;16.406;2024-02-23T03:08:41;0.40;;;0.40;;
10333;SDS011;5212;47.892;16.406;2024-02-23T03:11:07;0.40;;;0.40;;
10333;SDS011;5212;47.892;16.406;2024-02-23T03:13:34;0.60;;;0.40;;
10333;SDS011;5212;47.892;16.406;2024-02-23T03:16:00;0.80;;;0.50;;
10333;SDS011;5212;47.892;16.406;2024-02-23T03:18:26;0.50;;;0.40;;
10333;SDS011;5212;47.892;16.406;2024-02-23T03:20:53;0.77;;;0.50;;
10333;SDS011;5212;47.892;16.406;2024-02-23T03:23:19;0.40;;;0.30;;
10333;SDS011;5212;47.892;16.406;2024-02-23T03:25:45;0.80;;;0.47;;
10333;SDS011;5212;47.892;16.406;2024-02-23T03:28:10;0.47;;;0.40;;
10333;SDS011;5212;47.892;16.406;2024-02-23T03:30:37;2.67;;;0.50;;
10333;SDS011;5212;47.892;16.406;2024-02-23T03:33:03;0.53;;;0.50;;
10333;SDS011;5212;47.892;16.406;2024-02-23T03:35:30;0.30;;;0.30;;
10333;SDS011;5212;47.892;16.406;2024-02-23T03:37:56;0.40;;;0.40;;
10333;SDS011;5212;47.892;16.406;2024-02-23T03:40:22;0.40;;;0.40;;
10333;SDS011;5212;47.892;16.406;2024-02-23T03:42:48;0.40;;;0.40;;
10333;SDS011;5212;47.892;16.406;2024-02-23T03:45:14;0.30;;;0.30;;
10333;SDS011;5212;47.892;16.406;2024-02-23T03:47:40;1.33;;;0.43;;
10333;SDS011;5212;47.892;16.406;2024-02-23T03:50:07;0.40;;;0.40;;
10333;SDS011;5212;47.892;16.406;2024-02-23T03:52:33;0.40;;;0.40;;
10333;SDS011;5212;47.892;16.406;2024-02-23T03:54:59;0.50;;;0.40;;
10333;SDS011;5212;47.892;16.406;2024-02-23T03:57:25;0.43;;;0.40;;
10333;SDS011;5212;47.892;16.406;2024-02-23T03:59:51;0.50;;;0.40;;
10333;SDS011;5212;47.892;16.406;2024-02-23T04:02:17;0.90;;;0.53;;
10333;SDS011;5212;47.892;16.406;2024-02-23T04:04:44;0.43;;;0.37;;
10333;SDS011;5212;47.892;16.406;2024-02-23T04:07:10;0.40;;;0.30;;
10333;SDS011;5212;47.892;16.406;2024-02-23T04:09:36;0.40;;;0.40;;
10333;SDS011;5212;47.892;16.406;2024-02-23T04:12:02;0.37;;;0.37;;
10333;SDS011;5212;47.892;16.406;2024-02-23T04:14:29;0.60;;;0.40;;
10333;SDS011;5212;47.892;16.406;2024-02-23T04:16:55;1.13;;;0.50;;
10333;SDS011;5212;47.892;16.406;2024-02-23T04:19:21;0.50;;;0.50;;
10333;SDS011;5212;47.892;16.406;2024-02-23T04:21:47;1.20;;;0.50;;
10333;SDS011;5212;47.892;16.406;2024-02-23T04:24:14;1.00;;;0.70;;
10333;SDS011;5212;47.892;16.406;2024-02-23T04:26:40;3.50;;;1.73;;
10333;SDS011;5212;47.892;16.406;2024-02-23T04:29:05;2.70;;;1.87;;
10333;SDS011;5212;47.892;16.406;2024-02-23T04:31:32;1.40;;;1.20;;
10333;SDS011;5212;47.892;16.406;2024-02-23T04:33:58;1.63;;;1.23;;
10333;SDS011;5212;47.892;16.406;2024-02-23T04:36:24;3.37;;;1.93;;
10333;SDS011;5212;47.892;16.406;2024-02-23T04:38:50;1.73;;;1.43;;
10333;SDS011;5212;47.892;16.406;2024-02-23T04:41:19;1.73;;;1.00;;
10333;SDS011;5212;47.892;16.406;2024-02-23T04:43:45;1.53;;;1.43;;
10333;SDS011;5212;47.892;16.406;2024-02-23T04:46:11;1.40;;;1.30;;
10333;SDS011;5212;47.892;16.406;2024-02-23T04:48:38;2.67;;;1.50;;
10333;SDS011;5212;47.892;16.406;2024-02-23T04:51:04;2.03;;;1.77;;
10333;SDS011;5212;47.892;16.406;2024-02-23T04:53:31;1.70;;;1.30;;
10333;SDS011;5212;47.892;16.406;2024-02-23T04:55:58;1.33;;;1.20;;
10333;SDS011;5212;47.892;16.406;2024-02-23T04:58:24;2.70;;;1.60;;
10333;SDS011;5212;47.892;16.406;2024-02-23T05:00:50;1.33;;;1.10;;
10333;SDS011;5212;47.892;16.406;2024-02-23T05:03:16;1.43;;;1.20;;
10333;SDS011;5212;47.892;16.406;2024-02-23T05:05:42;1.23;;;1.00;;
10333;SDS011;5212;47.892;16.406;2024-02-23T05:08:08;1.13;;;0.80;;
10333;SDS011;5212;47.892;16.406;2024-02-23T05:10:34;1.07;;;0.97;;
10333;SDS011;5212;47.892;16.406;2024-02-23T05:13:01;0.87;;;0.80;;
10333;SDS011;5212;47.892;16.406;2024-02-23T05:15:27;1.03;;;0.70;;
10333;SDS011;5212;47.892;16.406;2024-02-23T05:17:53;0.93;;;0.77;;
10333;SDS011;5212;47.892;16.406;2024-02-23T05:20:19;1.20;;;0.70;;
10333;SDS011;5212;47.892;16.406;2024-02-23T05:22:45;1.10;;;0.70;;
10333;SDS011;5212;47.892;16.406;2024-02-23T05:25:11;0.70;;;0.60;;
10333;SDS011;5212;47.892;16.406;2024-02-23T05:27:37;1.17;;;0.80;;
10333;SDS011;5212;47.892;16.406;2024-02-23T05:30:04;0.90;;;0.80;;
10333;SDS011;5212;47.892;16.406;2024-02-23T05:32:31;0.70;;;0.60;;
10333;SDS011;5212;47.892;16.406;2024-02-23T05:34:57;0.63;;;0.60;;
10333;SDS011;5212;47.892;16.406;2024-02-23T05:37:23;0.60;;;0.50;;
10333;SDS011;5212;47.892;16.406;2024-02-23T05:39:49;1.03;;;0.70;;
10333;SDS011;5212;47.892;16.406;2024-02-23T05:42:15;0.70;;;0.70;;
10333;SDS011;5212;47.892;16.406;2024-02-23T05:44:43;2.10;;;0.70;;
10333;SDS011;5212;47.892;16.406;2024-02-23T05:47:09;0.67;;;0.60;;
10333;SDS011;5212;47.892;16.406;2024-02-23T05:49:35;1.20;;;0.90;;
10333;SDS011;5212;47.892;16.406;2024-02-23T05:52:01;7.13;;;3.13;;
10333;SDS011;5212;47.892;16.406;2024-02-23T05:54:28;20.07;;;8.67;;
10333;SDS011;5212;47.892;16.406;2024-02-23T05:56:54;14.63;;;7.27;;
10333;SDS011;5212;47.892;16.406;2024-02-23T05:59:20;31.97;;;12.33;;
10333;SDS011;5212;47.892;16.406;2024-02-23T06:01:46;18.50;;;9.47;;
10333;SDS011;5212;47.892;16.406;2024-02-23T06:04:13;18.73;;;9.77;;
10333;SDS011;5212;47.892;16.406;2024-02-23T06:06:40;13.43;;;6.87;;
10333;SDS011;5212;47.892;16.406;2024-02-23T06:09:07;12.57;;;3.70;;
10333;SDS011;5212;47.892;16.406;2024-02-23T06:11:33;5.57;;;2.93;;
10333;SDS011;5212;47.892;16.406;2024-02-23T06:13:59;4.53;;;2.40;;
10333;SDS011;5212;47.892;16.406;2024-02-23T06:16:25;4.13;;;2.10;;
10333;SDS011;5212;47.892;16.406;2024-02-23T06:18:51;3.40;;;1.83;;
10333;SDS011;5212;47.892;16.406;2024-02-23T06:21:18;2.20;;;1.67;;
10333;SDS011;5212;47.892;16.406;2024-02-23T06:23:44;4.17;;;1.50;;
10333;SDS011;5212;47.892;16.406;2024-02-23T06:26:10;1.53;;;0.97;;
10333;SDS011;5212;47.892;16.406;2024-02-23T06:28:36;1.47;;;1.10;;
10333;SDS011;5212;47.892;16.406;2024-02-23T06:31:03;2.57;;;1.27;;
10333;SDS011;5212;47.892;16.406;2024-02-23T06:33:30;2.30;;;1.30;;
10333;SDS011;5212;47.892;16.406;2024-02-23T06:35:56;2.27;;;1.93;;
10333;SDS011;5212;47.892;16.406;2024-02-23T06:38:22;3.07;;;2.33;;
10333;SDS011;5212;47.892;16.406;2024-02-23T06:40:48;2.23;;;1.70;;
10333;SDS011;5212;47.892;16.406;2024-02-23T06:43:14;2.17;;;1.87;;
10333;SDS011;5212;47.892;16.406;2024-02-23T06:45:40;2.10;;;1.90;;
10333;SDS011;5212;47.892;16.406;2024-02-23T06:48:07;1.90;;;1.57;;
10333;SDS011;5212;47.892;16.406;2024-02-23T06:50:34;1.33;;;1.23;;
10333;SDS011;5212;47.892;16.406;2024-02-23T06:53:00;4.10;;;1.70;;
10333;SDS011;5212;47.892;16.406;2024-02-23T06:55:28;3.43;;;1.23;;
10333;SDS011;5212;47.892;16.406;2024-02-23T06:57:54;1.93;;;0.77;;
10333;SDS011;5212;47.892;16.406;2024-02-23T07:00:20;1.63;;;1.17;;
10333;SDS011;5212;47.892;16.406;2024-02-23T07:02:46;1.30;;;0.90;;
10333;SDS011;5212;47.892;16.406;2024-02-23T07:05:12;1.10;;;0.90;;
10333;SDS011;5212;47.892;16.406;2024-02-23T07:07:39;0.67;;;0.60;;
10333;SDS011;5212;47.892;16.406;2024-02-23T07:10:06;0.70;;;0.60;;
10333;SDS011;5212;47.892;16.406;2024-02-23T07:12:34;1.20;;;0.77;;
10333;SDS011;5212;47.892;16.406;2024-02-23T07:15:00;0.70;;;0.70;;
10333;SDS011;5212;47.892;16.406;2024-02-23T07:17:27;1.20;;;0.73;;
10333;SDS011;5212;47.892;16.406;2024-02-23T07:19:53;0.83;;;0.70;;
10333;SDS011;5212;47.892;16.406;2024-02-23T07:22:21;0.70;;;0.50;;
10333;SDS011;5212;47.892;16.406;2024-02-23T07:24:47;0.60;;;0.50;;
10333;SDS011;5212;47.892;16.406;2024-02-23T07:27:14;0.73;;;0.70;;
10333;SDS011;5212;47.892;16.406;2024-02-23T07:29:41;0.50;;;0.50;;
10333;SDS011;5212;47.892;16.406;2024-02-23T07:32:07;0.80;;;0.70;;
10333;SDS011;5212;47.892;16.406;2024-02-23T07:34:33;0.50;;;0.50;;
10333;SDS011;5212;47.892;16.406;2024-02-23T07:36:59;0.90;;;0.70;;
10333;SDS011;5212;47.892;16.406;2024-02-23T07:39:25;0.50;;;0.50;;
10333;SDS011;5212;47.892;16.406;2024-02-23T07:41:51;0.73;;;0.60;;
10333;SDS011;5212;47.892;16.406;2024-02-23T07:44:17;1.00;;;0.60;;
10333;SDS011;5212;47.892;16.406;2024-02-23T07:46:44;3.27;;;0.70;;
10333;SDS011;5212;47.892;16.406;2024-02-23T07:49:10;0.63;;;0.63;;
10333;SDS011;5212;47.892;16.406;2024-02-23T07:51:36;1.93;;;0.77;;
10333;SDS011;5212;47.892;16.406;2024-02-23T07:54:02;0.83;;;0.77;;
10333;SDS011;5212;47.892;16.406;2024-02-23T07:56:28;1.43;;;0.90;;
10333;SDS011;5212;47.892;16.406;2024-02-23T07:58:55;1.33;;;0.93;;
10333;SDS011;5212;47.892;16.406;2024-02-23T08:01:21;1.10;;;0.60;;
10333;SDS011;5212;47.892;16.406;2024-02-23T08:03:48;1.13;;;0.83;;
10333;SDS011;5212;47.892;16.406;2024-02-23T08:06:14;0.80;;;0.47;;
10333;SDS011;5212;47.892;16.406;2024-02-23T08:08:40;1.00;;;0.70;;
10333;SDS011;5212;47.892;16.406;2024-02-23T08:11:06;0.53;;;0.53;;
10333;SDS011;5212;47.892;16.406;2024-02-23T08:13:32;0.90;;;0.67;;
10333;SDS011;5212;47.892;16.406;2024-02-23T08:15:58;0.83;;;0.67;;
10333;SDS011;5212;47.892;16.406;2024-02-23T08:18:24;0.50;;;0.50;;
10333;SDS011;5212;47.892;16.406;2024-02-23T08:20:50;0.90;;;0.70;;
10333;SDS011;5212;47.892;16.406;2024-02-23T08:23:17;0.60;;;0.60;;
10333;SDS011;5212;47.892;16.406;2024-02-23T08:25:44;1.00;;;0.63;;
10333;SDS011;5212;47.892;16.406;2024-02-23T08:28:10;1.10;;;0.70;;
10333;SDS011;5212;47.892;16.406;2024-02-23T08:30:36;0.50;;;0.50;;
10333;SDS011;5212;47.892;16.406;2024-02-23T08:33:02;0.50;;;0.50;;
10333;SDS011;5212;47.892;16.406;2024-02-23T08:35:28;0.87;;;0.70;;
10333;SDS011;5212;47.892;16.406;2024-02-23T08:37:55;0.80;;;0.60;;
10333;SDS011;5212;47.892;16.406;2024-02-23T08:40:21;0.93;;;0.67;;
10333;SDS011;5212;47.892;16.406;2024-02-23T08:42:47;0.50;;;0.50;;
10333;SDS011;5212;47.892;16.406;2024-02-23T08:45:15;0.63;;;0.60;;
10333;SDS011;5212;47.892;16.406;2024-02-23T08:47:41;0.90;;;0.50;;
10333;SDS011;5212;47.892;16.406;2024-02-23T08:50:07;0.60;;;0.60;;
10333;SDS011;5212;47.892;16.406;2024-02-23T08:52:34;3.03;;;0.70;;
10333;SDS011;5212;47.892;16.406;2024-02-23T08:55:00;0.90;;;0.60;;
10333;SDS011;5212;47.892;16.406;2024-02-23T08:57:27;1.20;;;0.60;;
10333;SDS011;5212;47.892;16.406;2024-02-23T08:59:53;1.00;;;0.60;;
10333;SDS011;5212;47.892;16.406;2024-02-23T09:02:19;1.47;;;1.00;;
10333;SDS011;5212;47.892;16.406;2024-02-23T09:04:45;1.40;;;1.03;;
10333;SDS011;5212;47.892;16.406;2024-02-23T09:07:11;1.67;;;1.40;;
10333;SDS011;5212;47.892;16.406;2024-02-23T09:09:37;1.23;;;1.00;;
10333;SDS011;5212;47.892;16.406;2024-02-23T09:12:04;1.83;;;1.00;;
10333;SDS011;5212;47.892;16.406;2024-02-23T09:14:31;0.93;;;0.73;;
10333;SDS011;5212;47.892;16.406;2024-02-23T09:16:58;0.77;;;0.60;;
10333;SDS011;5212;47.892;16.406;2024-02-23T09:19:24;0.50;;;0.50;;
10333;SDS011;5212;47.892;16.406;2024-02-23T09:21:50;0.80;;;0.60;;
10333;SDS011;5212;47.892;16.406;2024-02-23T09:24:16;0.50;;;0.40;;
10333;SDS011;5212;47.892;16.406;2024-02-23T09:26:45;0.83;;;0.50;;
10333;SDS011;5212;47.892;16.406;2024-02-23T09:29:12;1.57;;;0.50;;
10333;SDS011;5212;47.892;16.406;2024-02-23T09:31:38;0.60;;;0.60;;
10333;SDS011;5212;47.892;16.406;2024-02-23T09:34:04;2.33;;;0.63;;
10333;SDS011;5212;47.892;16.406;2024-02-23T09:36:30;1.17;;;0.60;;
10333;SDS011;5212;47.892;16.406;2024-02-23T09:38:56;0.90;;;0.60;;
10333;SDS011;5212;47.892;16.406;2024-02-23T09:41:22;2.03;;;0.80;;
10333;SDS011;5212;47.892;16.406;2024-02-23T09:43:49;1.57;;;1.00;;
10333;SDS011;5212;47.892;16.406;2024-02-23T09:46:17;1.20;;;0.90;;
10333;SDS011;5212;47.892;16.406;2024-02-23T09:48:43;1.67;;;1.20;;
10333;SDS011;5212;47.892;16.406;2024-02-23T09:51:09;1.30;;;1.00;;
10333;SDS011;5212;47.892;16.406;2024-02-23T09:53:37;2.20;;;1.07;;
10333;SDS011;5212;47.892;16.406;2024-02-23T09:56:04;1.10;;;0.80;;
10333;SDS011;5212;47.892;16.406;2024-02-23T09:58:30;0.83;;;0.60;;
10333;SDS011;5212;47.892;16.406;2024-02-23T10:00:57;1.10;;;0.70;;
10333;SDS011;5212;47.892;16.406;2024-02-23T10:03:25;0.60;;;0.50;;
10333;SDS011;5212;47.892;16.406;2024-02-23T10:05:52;0.70;;;0.53;;
10333;SDS011;5212;47.892;16.406;2024-02-23T10:08:18;0.70;;;0.50;;
10333;SDS011;5212;47.892;16.406;2024-02-23T10:10:45;0.83;;;0.63;;
10333;SDS011;5212;47.892;16.406;2024-02-23T10:13:11;1.00;;;0.70;;
10333;SDS011;5212;47.892;16.406;2024-02-23T10:15:37;1.03;;;0.70;;
10333;SDS011;5212;47.892;16.406;2024-02-23T10:18:03;0.97;;;0.70;;
10333;SDS011;5212;47.892;16.406;2024-02-23T10:20:30;1.17;;;0.70;;
10333;SDS011;5212;47.892;16.406;2024-02-23T10:22:56;0.80;;;0.57;;
10333;SDS011;5212;47.892;16.406;2024-02-23T10:25:22;0.80;;;0.70;;
10333;SDS011;5212;47.892;16.406;2024-02-23T10:27:48;1.00;;;0.70;;
10333;SDS011;5212;47.892;16.406;2024-02-23T10:30:15;1.10;;;0.63;;
10333;SDS011;5212;47.892;16.406;2024-02-23T10:32:41;1.67;;;0.90;;
10333;SDS011;5212;47.892;16.406;2024-02-23T10:35:10;1.27;;;0.70;;
10333;SDS011;5212;47.892;16.406;2024-02-23T10:37:40;1.10;;;0.80;;
10333;SDS011;5212;47.892;16.406;2024-02-23T10:40:07;2.13;;;0.90;;
10333;SDS011;5212;47.892;16.406;2024-02-23T10:42:35;0.73;;;0.63;;
10333;SDS011;5212;47.892;16.406;2024-02-23T10:45:02;1.30;;;0.80;;
10333;SDS011;5212;47.892;16.406;2024-02-23T10:47:29;1.10;;;0.70;;
10333;SDS011;5212;47.892;16.406;2024-02-23T10:49:56;2.03;;;0.80;;
10333;SDS011;5212;47.892;16.406;2024-02-23T10:52:26;0.90;;;0.70;;
10333;SDS011;5212;47.892;16.406;2024-02-23T10:54:53;1.20;;;0.90;;
10333;SDS011;5212;47.892;16.406;2024-02-23T10:57:20;1.83;;;0.93;;
10333;SDS011;5212;47.892;16.406;2024-02-23T10:59:46;8.43;;;1.10;;
10333;SDS011;5212;47.892;16.406;2024-02-23T11:02:12;2.33;;;1.20;;
10333;SDS011;5212;47.892;16.406;2024-02-23T11:04:41;1.43;;;0.90;;
10333;SDS011;5212;47.892;16.406;2024-02-23T11:07:12;1.27;;;0.90;;
10333;SDS011;5212;47.892;16.406;2024-02-23T11:09:39;1.77;;;0.90;;
10333;SDS011;5212;47.892;16.406;2024-02-23T11:12:06;0.93;;;0.70;;
10333;SDS011;5212;47.892;16.406;2024-02-23T11:14:35;1.00;;;0.77;;
10333;SDS011;5212;47.892;16.406;2024-02-23T11:17:02;1.20;;;0.83;;
10333;SDS011;5212;47.892;16.406;2024-02-23T11:19:34;0.87;;;0.80;;
10333;SDS011;5212;47.892;16.406;2024-02-23T11:22:01;0.80;;;0.70;;
10333;SDS011;5212;47.892;16.406;2024-02-23T11:24:28;1.47;;;0.90;;
10333;SDS011;5212;47.892;16.406;2024-02-23T11:26:55;1.23;;;0.90;;
10333;SDS011;5212;47.892;16.406;2024-02-23T11:29:25;1.20;;;0.70;;
10333;SDS011;5212;47.892;16.406;2024-02-23T11:31:52;1.50;;;0.90;;
10333;SDS011;5212;47.892;16.406;2024-02-23T11:34:21;3.03;;;0.90;;
10333;SDS011;5212;47.892;16.406;2024-02-23T11:36:50;2.53;;;1.20;;
10333;SDS011;5212;47.892;16.406;2024-02-23T11:39:17;1.60;;;0.90;;
10333;SDS011;5212;47.892;16.406;2024-02-23T11:41:43;2.80;;;1.20;;
10333;SDS011;5212;47.892;16.406;2024-02-23T11:44:10;1.00;;;0.90;;
10333;SDS011;5212;47.892;16.406;2024-02-23T11:46:39;1.87;;;1.30;;
10333;SDS011;5212;47.892;16.406;2024-02-23T11:49:05;1.80;;;1.10;;
10333;SDS011;5212;47.892;16.406;2024-02-23T11:51:31;1.30;;;0.90;;
10333;SDS011;5212;47.892;16.406;2024-02-23T11:53:57;1.43;;;1.00;;
10333;SDS011;5212;47.892;16.406;2024-02-23T11:56:25;1.30;;;0.93;;
10333;SDS011;5212;47.892;16.406;2024-02-23T11:58:51;1.33;;;0.90;;
10333;SDS011;5212;47.892;16.406;2024-02-23T12:01:18;1.33;;;1.10;;
10333;SDS011;5212;47.892;16.406;2024-02-23T12:03:45;1.40;;;1.13;;
10333;SDS011;5212;47.892;16.406;2024-02-23T12:06:11;3.80;;;1.30;;
10333;SDS011;5212;47.892;16.406;2024-02-23T12:08:37;2.23;;;1.50;;
10333;SDS011;5212;47.892;16.406;2024-02-23T12:11:03;1.73;;;1.40;;
10333;SDS011;5212;47.892;16.406;2024-02-23T12:13:30;2.10;;;1.23;;
10333;SDS011;5212;47.892;16.406;2024-02-23T12:15:56;1.87;;;1.27;;
10333;SDS011;5212;47.892;16.406;2024-02-23T12:18:23;1.50;;;1.10;;
10333;SDS011;5212;47.892;16.406;2024-02-23T12:20:52;1.50;;;1.17;;
10333;SDS011;5212;47.892;16.406;2024-02-23T12:23:18;3.43;;;1.40;;
10333;SDS011;5212;47.892;16.406;2024-02-23T12:25:51;2.47;;;1.57;;
10333;SDS011;5212;47.892;16.406;2024-02-23T12:28:18;2.47;;;1.30;;
10333;SDS011;5212;47.892;16.406;2024-02-23T12:30:44;1.90;;;1.50;;
10333;SDS011;5212;47.892;16.406;2024-02-23T12:33:12;1.43;;;1.17;;
10333;SDS011;5212;47.892;16.406;2024-02-23T12:35:41;2.97;;;1.60;;
10333;SDS011;5212;47.892;16.406;2024-02-23T12:38:07;1.90;;;1.60;;
10333;SDS011;5212;47.892;16.406;2024-02-23T12:40:34;2.20;;;1.50;;
10333;SDS011;5212;47.892;16.406;2024-02-23T12:43:00;5.30;;;2.87;;
10333;SDS011;5212;47.892;16.406;2024-02-23T12:45:26;5.53;;;3.10;;
10333;SDS011;5212;47.892;16.406;2024-02-23T12:47:52;6.87;;;2.80;;
10333;SDS011;5212;47.892;16.406;2024-02-23T12:50:18;2.40;;;1.53;;
10333;SDS011;5212;47.892;16.406;2024-02-23T12:52:44;2.23;;;1.70;;
10333;SDS011;5212;47.892;16.406;2024-02-23T12:55:12;2.27;;;1.60;;
10333;SDS011;5212;47.892;16.406;2024-02-23T12:57:38;3.20;;;1.70;;
10333;SDS011;5212;47.892;16.406;2024-02-23T13:00:04;2.53;;;1.80;;
10333;SDS011;5212;47.892;16.406;2024-02-23T13:02:31;1.97;;;1.53;;
10333;SDS011;5212;47.892;16.406;2024-02-23T13:04:57;2.83;;;1.90;;
10333;SDS011;5212;47.892;16.406;2024-02-23T13:07:23;2.00;;;1.60;;
10333;SDS011;5212;47.892;16.406;2024-02-23T13:09:49;2.90;;;1.60;;
10333;SDS011;5212;47.892;16.406;2024-02-23T13:12:16;2.30;;;1.57;;
10333;SDS011;5212;47.892;16.406;2024-02-23T13:14:42;2.97;;;1.70;;
10333;SDS011;5212;47.892;16.406;2024-02-23T13:17:08;2.20;;;1.40;;
10333;SDS011;5212;47.892;16.406;2024-02-23T13:19:34;2.20;;;1.40;;
10333;SDS011;5212;47.892;16.406;2024-02-23T13:22:00;4.10;;;1.70;;
10333;SDS011;5212;47.892;16.406;2024-02-23T13:24:26;2.27;;;1.90;;
10333;SDS011;5212;47.892;16.406;2024-02-23T13:26:52;2.43;;;1.70;;
10333;SDS011;5212;47.892;16.406;2024-02-23T13:29:19;1.87;;;1.40;;
10333;SDS011;5212;47.892;16.406;2024-02-23T13:31:45;2.00;;;1.27;;
10333;SDS011;5212;47.892;16.406;2024-02-23T13:34:11;1.80;;;1.33;;
10333;SDS011;5212;47.892;16.406;2024-02-23T13:36:40;1.63;;;1.23;;
10333;SDS011;5212;47.892;16.406;2024-02-23T13:39:06;2.03;;;1.50;;
10333;SDS011;5212;47.892;16.406;2024-02-23T13:41:33;1.87;;;1.20;;
10333;SDS011;5212;47.892;16.406;2024-02-23T13:43:59;1.63;;;1.53;;
10333;SDS011;5212;47.892;16.406;2024-02-23T13:46:26;1.73;;;1.30;;
10333;SDS011;5212;47.892;16.406;2024-02-23T13:49:02;1.63;;;1.30;;
10333;SDS011;5212;47.892;16.406;2024-02-23T13:51:28;1.63;;;1.13;;
10333;SDS011;5212;47.892;16.406;2024-02-23T13:53:54;1.73;;;1.10;;
10333;SDS011;5212;47.892;16.406;2024-02-23T13:56:20;1.70;;;1.23;;
10333;SDS011;5212;47.892;16.406;2024-02-23T13:58:47;3.90;;;1.60;;
10333;SDS011;5212;47.892;16.406;2024-02-23T14:01:14;1.50;;;1.20;;
10333;SDS011;5212;47.892;16.406;2024-02-23T14:03:40;1.80;;;1.13;;
10333;SDS011;5212;47.892;16.406;2024-02-23T14:06:06;1.83;;;1.23;;
10333;SDS011;5212;47.892;16.406;2024-02-23T14:08:33;2.20;;;1.33;;
10333;SDS011;5212;47.892;16.406;2024-02-23T14:11:00;2.23;;;1.53;;
10333;SDS011;5212;47.892;16.406;2024-02-23T14:13:26;2.10;;;1.47;;
10333;SDS011;5212;47.892;16.406;2024-02-23T14:15:52;1.40;;;1.23;;
10333;SDS011;5212;47.892;16.406;2024-02-23T14:18:19;2.63;;;1.60;;
10333;SDS011;5212;47.892;16.406;2024-02-23T14:20:46;2.10;;;1.40;;
10333;SDS011;5212;47.892;16.406;2024-02-23T14:23:12;2.50;;;1.70;;
10333;SDS011;5212;47.892;16.406;2024-02-23T14:25:38;3.10;;;1.47;;
10333;SDS011;5212;47.892;16.406;2024-02-23T14:28:04;2.00;;;1.57;;
10333;SDS011;5212;47.892;16.406;2024-02-23T14:30:30;2.67;;;1.70;;
10333;SDS011;5212;47.892;16.406;2024-02-23T14:32:56;2.10;;;1.60;;
10333;SDS011;5212;47.892;16.406;2024-02-23T14:35:22;3.30;;;2.20;;
10333;SDS011;5212;47.892;16.406;2024-02-23T14:37:48;2.27;;;1.83;;
10333;SDS011;5212;47.892;16.406;2024-02-23T14:40:14;3.30;;;1.70;;
10333;SDS011;5212;47.892;16.406;2024-02-23T14:42:40;2.10;;;1.70;;